sensor_id;sensor_type;location;lat;lon;timestamp;pressure;altitude;pressure_sealevel;temperature;humidity
75192;BME280;63771;52.580;9.734;2023-04-29T00:00:59;100589.34;;;12.01;91.31
75192;BME280;63771;52.580;9.734;2023-04-29T00:03:32;100589.78;;;11.95;92.10
75192;BME280;63771;52.580;9.734;2023-04-29T00:05:58;100595.22;;;11.88;92.63
75192;BME280;63771;52.580;9.734;2023-04-29T00:08:24;100595.88;;;11.86;92.47
75192;BME280;63771;52.580;9.734;2023-04-29T00:10:49;100590.00;;;11.87;92.86
75192;BME280;63771;52.580;9.734;2023-04-29T00:13:15;100596.00;;;11.87;93.12
75192;BME280;63771;52.580;9.734;2023-04-29T00:15:41;100589.31;;;11.89;92.88
75192;BME280;63771;52.580;9.734;2023-04-29T00:18:07;100599.44;;;11.88;93.02
75192;BME280;63771;52.580;9.734;2023-04-29T00:20:33;100601.75;;;11.85;93.23
75192;BME280;63771;52.580;9.734;2023-04-29T00:22:59;100601.41;;;11.80;93.31
75192;BME280;63771;52.580;9.734;2023-04-29T00:25:24;100593.75;;;11.80;92.83
75192;BME280;63771;52.580;9.734;2023-04-29T00:27:49;100597.19;;;11.81;92.79
75192;BME280;63771;52.580;9.734;2023-04-29T00:30:15;100596.44;;;11.82;92.81
75192;BME280;63771;52.580;9.734;2023-04-29T00:32:40;100606.38;;;11.79;93.27
75192;BME280;63771;52.580;9.734;2023-04-29T00:35:05;100590.38;;;11.69;93.78
75192;BME280;63771;52.580;9.734;2023-04-29T00:37:31;100600.34;;;11.66;93.94
75192;BME280;63771;52.580;9.734;2023-04-29T00:39:57;100601.00;;;11.64;94.17
75192;BME280;63771;52.580;9.734;2023-04-29T00:42:22;100604.13;;;11.60;94.24
75192;BME280;63771;52.580;9.734;2023-04-29T00:44:48;100613.78;;;11.64;93.94
75192;BME280;63771;52.580;9.734;2023-04-29T00:47:13;100609.91;;;11.69;93.96
75192;BME280;63771;52.580;9.734;2023-04-29T00:49:39;100615.81;;;11.80;93.18
75192;BME280;63771;52.580;9.734;2023-04-29T00:52:04;100616.59;;;11.79;93.65
75192;BME280;63771;52.580;9.734;2023-04-29T00:54:33;100620.19;;;11.81;93.31
75192;BME280;63771;52.580;9.734;2023-04-29T00:57:00;100624.66;;;11.83;93.00
75192;BME280;63771;52.580;9.734;2023-04-29T00:59:27;100629.75;;;11.83;93.28
75192;BME280;63771;52.580;9.734;2023-04-29T01:01:58;100630.84;;;11.75;93.61
75192;BME280;63771;52.580;9.734;2023-04-29T01:04:24;100631.84;;;11.77;93.13
75192;BME280;63771;52.580;9.734;2023-04-29T01:07:08;100643.94;;;11.80;92.66
75192;BME280;63771;52.580;9.734;2023-04-29T01:12:44;100641.13;;;11.65;92.06
75192;BME280;63771;52.580;9.734;2023-04-29T01:15:16;100650.88;;;11.59;92.39
75192;BME280;63771;52.580;9.734;2023-04-29T01:18:08;100655.41;;;11.51;92.63
75192;BME280;63771;52.580;9.734;2023-04-29T01:20:35;100664.91;;;11.42;92.43
75192;BME280;63771;52.580;9.734;2023-04-29T01:23:01;100663.13;;;11.41;92.81
75192;BME280;63771;52.580;9.734;2023-04-29T01:25:27;100670.44;;;11.36;93.12
75192;BME280;63771;52.580;9.734;2023-04-29T01:31:19;100662.19;;;11.29;92.73
75192;BME280;63771;52.580;9.734;2023-04-29T01:34:07;100670.78;;;11.19;93.36
75192;BME280;63771;52.580;9.734;2023-04-29T01:36:50;100675.00;;;11.18;93.37
75192;BME280;63771;52.580;9.734;2023-04-29T01:41:59;100676.38;;;11.25;92.66
75192;BME280;63771;52.580;9.734;2023-04-29T01:44:28;100681.00;;;11.19;93.02
75192;BME280;63771;52.580;9.734;2023-04-29T01:46:56;100688.72;;;11.09;93.14
75192;BME280;63771;52.580;9.734;2023-04-29T01:49:28;100691.63;;;11.13;92.54
75192;BME280;63771;52.580;9.734;2023-04-29T01:51:54;100701.47;;;11.09;93.18
75192;BME280;63771;52.580;9.734;2023-04-29T01:54:20;100700.22;;;11.04;93.09
75192;BME280;63771;52.580;9.734;2023-04-29T01:56:47;100708.66;;;11.03;93.18
75192;BME280;63771;52.580;9.734;2023-04-29T01:59:12;100707.63;;;11.01;93.24
75192;BME280;63771;52.580;9.734;2023-04-29T02:01:38;100725.00;;;10.94;92.97
75192;BME280;63771;52.580;9.734;2023-04-29T02:04:03;100713.44;;;10.88;93.14
75192;BME280;63771;52.580;9.734;2023-04-29T02:06:29;100725.41;;;10.89;92.84
75192;BME280;63771;52.580;9.734;2023-04-29T02:08:59;100729.13;;;10.82;93.20
75192;BME280;63771;52.580;9.734;2023-04-29T02:11:24;100735.03;;;10.81;93.15
75192;BME280;63771;52.580;9.734;2023-04-29T02:13:49;100743.06;;;10.76;93.64
75192;BME280;63771;52.580;9.734;2023-04-29T02:16:15;100754.28;;;10.67;93.71
75192;BME280;63771;52.580;9.734;2023-04-29T02:18:41;100744.38;;;10.60;93.63
75192;BME280;63771;52.580;9.734;2023-04-29T02:21:06;100755.09;;;10.56;93.49
75192;BME280;63771;52.580;9.734;2023-04-29T02:23:32;100757.75;;;10.58;92.92
75192;BME280;63771;52.580;9.734;2023-04-29T02:25:58;100764.91;;;10.62;92.49
75192;BME280;63771;52.580;9.734;2023-04-29T02:28:23;100761.84;;;10.56;92.16
75192;BME280;63771;52.580;9.734;2023-04-29T02:30:49;100761.34;;;10.50;92.33
75192;BME280;63771;52.580;9.734;2023-04-29T02:33:14;100759.69;;;10.40;92.75
75192;BME280;63771;52.580;9.734;2023-04-29T02:35:40;100770.78;;;10.40;92.79
75192;BME280;63771;52.580;9.734;2023-04-29T02:38:06;100766.69;;;10.32;92.74
75192;BME280;63771;52.580;9.734;2023-04-29T02:40:31;100775.75;;;10.29;92.88
75192;BME280;63771;52.580;9.734;2023-04-29T02:42:56;100787.34;;;10.25;93.20
75192;BME280;63771;52.580;9.734;2023-04-29T02:45:22;100782.09;;;10.13;93.30
75192;BME280;63771;52.580;9.734;2023-04-29T02:47:47;100791.63;;;10.16;93.40
75192;BME280;63771;52.580;9.734;2023-04-29T02:50:13;100788.31;;;10.17;93.56
75192;BME280;63771;52.580;9.734;2023-04-29T02:52:38;100790.13;;;10.18;93.80
75192;BME280;63771;52.580;9.734;2023-04-29T02:55:06;100795.47;;;10.21;93.72
75192;BME280;63771;52.580;9.734;2023-04-29T02:57:31;100798.31;;;10.24;93.25
75192;BME280;63771;52.580;9.734;2023-04-29T02:59:57;100801.56;;;10.23;93.27
75192;BME280;63771;52.580;9.734;2023-04-29T03:02:23;100796.22;;;10.20;93.52
75192;BME280;63771;52.580;9.734;2023-04-29T03:04:48;100803.50;;;10.15;93.28
75192;BME280;63771;52.580;9.734;2023-04-29T03:07:13;100797.22;;;10.12;93.66
75192;BME280;63771;52.580;9.734;2023-04-29T03:09:41;100805.25;;;10.06;94.16
75192;BME280;63771;52.580;9.734;2023-04-29T03:12:06;100812.00;;;10.06;93.96
75192;BME280;63771;52.580;9.734;2023-04-29T03:14:32;100804.13;;;10.03;94.30
75192;BME280;63771;52.580;9.734;2023-04-29T03:16:57;100816.09;;;10.04;94.09
75192;BME280;63771;52.580;9.734;2023-04-29T03:19:22;100800.53;;;10.01;94.05
75192;BME280;63771;52.580;9.734;2023-04-29T03:21:48;100805.13;;;10.05;94.17
75192;BME280;63771;52.580;9.734;2023-04-29T03:24:14;100806.41;;;10.00;94.23
75192;BME280;63771;52.580;9.734;2023-04-29T03:26:40;100807.16;;;9.99;94.12
75192;BME280;63771;52.580;9.734;2023-04-29T03:29:07;100816.84;;;9.92;94.03
75192;BME280;63771;52.580;9.734;2023-04-29T03:31:32;100815.81;;;10.01;93.57
75192;BME280;63771;52.580;9.734;2023-04-29T03:33:58;100820.69;;;9.98;93.45
75192;BME280;63771;52.580;9.734;2023-04-29T03:36:23;100826.66;;;9.98;93.27
75192;BME280;63771;52.580;9.734;2023-04-29T03:38:48;100834.31;;;9.98;93.57
75192;BME280;63771;52.580;9.734;2023-04-29T03:41:14;100832.00;;;10.01;93.27
75192;BME280;63771;52.580;9.734;2023-04-29T03:43:39;100837.34;;;9.94;93.04
75192;BME280;63771;52.580;9.734;2023-04-29T03:46:05;100833.25;;;9.96;93.13
75192;BME280;63771;52.580;9.734;2023-04-29T03:48:30;100834.16;;;9.97;92.98
75192;BME280;63771;52.580;9.734;2023-04-29T03:50:56;100842.19;;;10.01;92.73
75192;BME280;63771;52.580;9.734;2023-04-29T03:53:21;100842.06;;;10.00;92.94
75192;BME280;63771;52.580;9.734;2023-04-29T03:55:46;100843.97;;;10.02;92.79
75192;BME280;63771;52.580;9.734;2023-04-29T03:58:12;100847.06;;;9.98;92.99
75192;BME280;63771;52.580;9.734;2023-04-29T04:00:38;100849.44;;;9.97;93.13
75192;BME280;63771;52.580;9.734;2023-04-29T04:03:04;100859.53;;;9.95;93.01
75192;BME280;63771;52.580;9.734;2023-04-29T04:05:29;100857.88;;;9.96;92.83
75192;BME280;63771;52.580;9.734;2023-04-29T04:07:54;100866.56;;;9.98;92.74
75192;BME280;63771;52.580;9.734;2023-04-29T04:10:20;100866.00;;;9.91;92.42
75192;BME280;63771;52.580;9.734;2023-04-29T04:12:45;100869.31;;;9.90;92.16
75192;BME280;63771;52.580;9.734;2023-04-29T04:15:11;100873.41;;;9.88;92.23
75192;BME280;63771;52.580;9.734;2023-04-29T04:17:37;100879.88;;;9.85;93.13
75192;BME280;63771;52.580;9.734;2023-04-29T04:20:02;100883.78;;;9.81;92.67
75192;BME280;63771;52.580;9.734;2023-04-29T04:22:28;100881.13;;;9.80;92.43
75192;BME280;63771;52.580;9.734;2023-04-29T04:24:54;100892.31;;;9.72;92.44
75192;BME280;63771;52.580;9.734;2023-04-29T04:27:20;100896.66;;;9.73;92.96
75192;BME280;63771;52.580;9.734;2023-04-29T04:29:45;100906.06;;;9.74;93.02
75192;BME280;63771;52.580;9.734;2023-04-29T04:32:10;100909.25;;;9.71;92.91
75192;BME280;63771;52.580;9.734;2023-04-29T04:34:36;100907.44;;;9.70;92.73
75192;BME280;63771;52.580;9.734;2023-04-29T04:37:03;100919.03;;;9.66;92.38
75192;BME280;63771;52.580;9.734;2023-04-29T04:39:28;100921.72;;;9.68;92.29
75192;BME280;63771;52.580;9.734;2023-04-29T04:41:54;100926.81;;;9.68;92.59
75192;BME280;63771;52.580;9.734;2023-04-29T04:44:19;100926.13;;;9.60;92.10
75192;BME280;63771;52.580;9.734;2023-04-29T04:46:44;100938.31;;;9.54;92.66
75192;BME280;63771;52.580;9.734;2023-04-29T04:49:10;100933.31;;;9.46;92.93
75192;BME280;63771;52.580;9.734;2023-04-29T04:51:35;100928.06;;;9.44;92.90
75192;BME280;63771;52.580;9.734;2023-04-29T04:54:00;100943.75;;;9.49;93.23
75192;BME280;63771;52.580;9.734;2023-04-29T04:56:26;100945.28;;;9.47;93.18
75192;BME280;63771;52.580;9.734;2023-04-29T04:58:51;100952.16;;;9.48;93.14
75192;BME280;63771;52.580;9.734;2023-04-29T05:01:16;100951.88;;;9.45;93.13
75192;BME280;63771;52.580;9.734;2023-04-29T05:03:42;100950.91;;;9.53;92.79
75192;BME280;63771;52.580;9.734;2023-04-29T05:06:07;100955.13;;;9.52;92.81
75192;BME280;63771;52.580;9.734;2023-04-29T05:08:32;100963.53;;;9.51;92.90
75192;BME280;63771;52.580;9.734;2023-04-29T05:10:58;100961.16;;;9.44;93.45
75192;BME280;63771;52.580;9.734;2023-04-29T05:13:23;100962.97;;;9.45;93.40
75192;BME280;63771;52.580;9.734;2023-04-29T05:15:49;100963.09;;;9.47;93.18
75192;BME280;63771;52.580;9.734;2023-04-29T05:18:15;100976.38;;;9.53;93.07
75192;BME280;63771;52.580;9.734;2023-04-29T05:20:40;100975.19;;;9.49;93.19
75192;BME280;63771;52.580;9.734;2023-04-29T05:23:05;100981.94;;;9.49;92.90
75192;BME280;63771;52.580;9.734;2023-04-29T05:25:31;100983.72;;;9.50;93.31
75192;BME280;63771;52.580;9.734;2023-04-29T05:27:56;100977.41;;;9.55;93.02
75192;BME280;63771;52.580;9.734;2023-04-29T05:30:22;100986.88;;;9.56;92.96
75192;BME280;63771;52.580;9.734;2023-04-29T05:32:47;100981.34;;;9.51;92.83
75192;BME280;63771;52.580;9.734;2023-04-29T05:35:15;100987.47;;;9.53;92.97
75192;BME280;63771;52.580;9.734;2023-04-29T05:37:40;100990.91;;;9.54;92.88
75192;BME280;63771;52.580;9.734;2023-04-29T05:40:06;100997.31;;;9.59;92.56
75192;BME280;63771;52.580;9.734;2023-04-29T05:42:32;100991.75;;;9.63;92.61
75192;BME280;63771;52.580;9.734;2023-04-29T05:44:57;101000.56;;;9.66;92.97
75192;BME280;63771;52.580;9.734;2023-04-29T05:47:23;101009.22;;;9.68;92.43
75192;BME280;63771;52.580;9.734;2023-04-29T05:49:48;101017.00;;;9.70;92.38
75192;BME280;63771;52.580;9.734;2023-04-29T05:52:14;101013.13;;;9.65;91.83
75192;BME280;63771;52.580;9.734;2023-04-29T05:54:39;101018.22;;;9.65;92.26
75192;BME280;63771;52.580;9.734;2023-04-29T05:57:05;101025.69;;;9.72;92.19
75192;BME280;63771;52.580;9.734;2023-04-29T05:59:31;101032.03;;;9.67;92.25
75192;BME280;63771;52.580;9.734;2023-04-29T06:01:58;101031.47;;;9.61;92.50
75192;BME280;63771;52.580;9.734;2023-04-29T06:04:24;101037.16;;;9.58;92.70
75192;BME280;63771;52.580;9.734;2023-04-29T06:06:53;101044.38;;;9.54;92.70
75192;BME280;63771;52.580;9.734;2023-04-29T06:09:19;101036.28;;;9.58;92.54
75192;BME280;63771;52.580;9.734;2023-04-29T06:11:45;101041.91;;;9.64;92.12
75192;BME280;63771;52.580;9.734;2023-04-29T06:14:11;101053.91;;;9.65;92.35
75192;BME280;63771;52.580;9.734;2023-04-29T06:16:36;101051.97;;;9.62;92.61
75192;BME280;63771;52.580;9.734;2023-04-29T06:19:02;101054.78;;;9.65;92.39
75192;BME280;63771;52.580;9.734;2023-04-29T06:21:27;101060.81;;;9.66;91.78
75192;BME280;63771;52.580;9.734;2023-04-29T06:23:53;101068.22;;;9.73;91.97
75192;BME280;63771;52.580;9.734;2023-04-29T06:26:19;101074.66;;;9.78;92.49
75192;BME280;63771;52.580;9.734;2023-04-29T06:28:45;101076.44;;;9.79;91.75
75192;BME280;63771;52.580;9.734;2023-04-29T06:31:11;101078.22;;;9.80;91.36
75192;BME280;63771;52.580;9.734;2023-04-29T06:33:37;101078.72;;;9.76;90.77
75192;BME280;63771;52.580;9.734;2023-04-29T06:36:02;101082.72;;;9.83;91.17
75192;BME280;63771;52.580;9.734;2023-04-29T06:38:28;101084.50;;;9.84;90.98
75192;BME280;63771;52.580;9.734;2023-04-29T06:40:54;101087.34;;;9.87;91.20
75192;BME280;63771;52.580;9.734;2023-04-29T06:43:19;101089.13;;;9.88;90.87
75192;BME280;63771;52.580;9.734;2023-04-29T06:45:45;101083.59;;;9.83;90.87
75192;BME280;63771;52.580;9.734;2023-04-29T06:48:11;101094.81;;;9.85;90.30
75192;BME280;63771;52.580;9.734;2023-04-29T06:50:36;101108.44;;;9.86;90.70
75192;BME280;63771;52.580;9.734;2023-04-29T06:53:01;101105.56;;;9.91;90.48
75192;BME280;63771;52.580;9.734;2023-04-29T06:55:27;101113.19;;;9.91;90.26
75192;BME280;63771;52.580;9.734;2023-04-29T06:57:52;101117.56;;;9.92;89.74
75192;BME280;63771;52.580;9.734;2023-04-29T07:00:18;101122.03;;;9.95;89.98
75192;BME280;63771;52.580;9.734;2023-04-29T07:02:45;101125.47;;;9.96;90.01
75192;BME280;63771;52.580;9.734;2023-04-29T07:05:10;101133.13;;;9.96;89.66
75192;BME280;63771;52.580;9.734;2023-04-29T07:07:36;101131.13;;;10.02;89.15
75192;BME280;63771;52.580;9.734;2023-04-29T07:10:03;101136.03;;;10.09;88.81
75192;BME280;63771;52.580;9.734;2023-04-29T07:12:28;101142.63;;;10.07;88.63
75192;BME280;63771;52.580;9.734;2023-04-29T07:14:53;101151.03;;;10.06;88.88
75192;BME280;63771;52.580;9.734;2023-04-29T07:17:19;101152.81;;;10.07;88.22
75192;BME280;63771;52.580;9.734;2023-04-29T07:19:44;101165.16;;;10.02;87.78
75192;BME280;63771;52.580;9.734;2023-04-29T07:22:10;101162.00;;;10.05;88.63
75192;BME280;63771;52.580;9.734;2023-04-29T07:24:36;101170.25;;;10.02;87.91
75192;BME280;63771;52.580;9.734;2023-04-29T07:27:01;101172.31;;;10.06;88.39
75192;BME280;63771;52.580;9.734;2023-04-29T07:29:27;101179.63;;;10.12;88.28
75192;BME280;63771;52.580;9.734;2023-04-29T07:31:52;101183.66;;;10.18;88.68
75192;BME280;63771;52.580;9.734;2023-04-29T07:34:18;101182.47;;;10.24;87.79
75192;BME280;63771;52.580;9.734;2023-04-29T07:36:43;101188.59;;;10.26;86.72
75192;BME280;63771;52.580;9.734;2023-04-29T07:39:08;101197.53;;;10.31;85.40
75192;BME280;63771;52.580;9.734;2023-04-29T07:41:36;101196.91;;;10.33;87.10
75192;BME280;63771;52.580;9.734;2023-04-29T07:44:01;101200.66;;;10.37;85.13
75192;BME280;63771;52.580;9.734;2023-04-29T07:46:27;101196.72;;;10.40;85.37
75192;BME280;63771;52.580;9.734;2023-04-29T07:48:52;101202.50;;;10.48;83.99
75192;BME280;63771;52.580;9.734;2023-04-29T07:51:17;101202.16;;;10.54;83.62
75192;BME280;63771;52.580;9.734;2023-04-29T07:53:43;101200.72;;;10.66;82.65
75192;BME280;63771;52.580;9.734;2023-04-29T07:56:08;101203.81;;;10.72;83.26
75192;BME280;63771;52.580;9.734;2023-04-29T07:58:34;101205.66;;;10.83;84.45
75192;BME280;63771;52.580;9.734;2023-04-29T08:01:09;101209.13;;;10.94;84.66
75192;BME280;63771;52.580;9.734;2023-04-29T08:03:35;101209.06;;;11.03;82.67
75192;BME280;63771;52.580;9.734;2023-04-29T08:06:02;101220.06;;;11.12;83.31
75192;BME280;63771;52.580;9.734;2023-04-29T08:08:29;101224.31;;;11.21;82.22
75192;BME280;63771;52.580;9.734;2023-04-29T08:10:55;101228.31;;;11.28;81.88
75192;BME280;63771;52.580;9.734;2023-04-29T08:13:20;101233.19;;;11.35;82.25
75192;BME280;63771;52.580;9.734;2023-04-29T08:15:45;101224.53;;;11.43;82.75
75192;BME280;63771;52.580;9.734;2023-04-29T08:18:11;101227.75;;;11.51;81.38
75192;BME280;63771;52.580;9.734;2023-04-29T08:20:36;101233.75;;;11.52;80.50
75192;BME280;63771;52.580;9.734;2023-04-29T08:23:01;101242.72;;;11.57;79.93
75192;BME280;63771;52.580;9.734;2023-04-29T08:25:27;101245.25;;;11.57;79.64
75192;BME280;63771;52.580;9.734;2023-04-29T08:27:53;101245.38;;;11.58;78.52
75192;BME280;63771;52.580;9.734;2023-04-29T08:30:18;101248.22;;;11.61;79.17
75192;BME280;63771;52.580;9.734;2023-04-29T08:32:43;101247.56;;;11.64;78.77
75192;BME280;63771;52.580;9.734;2023-04-29T08:35:09;101255.78;;;11.70;79.14
75192;BME280;63771;52.580;9.734;2023-04-29T08:37:34;101252.06;;;11.66;77.07
75192;BME280;63771;52.580;9.734;2023-04-29T08:40:00;101245.56;;;11.70;78.88
75192;BME280;63771;52.580;9.734;2023-04-29T08:42:36;101256.88;;;11.82;78.91
75192;BME280;63771;52.580;9.734;2023-04-29T08:45:02;101256.00;;;11.92;77.84
75192;BME280;63771;52.580;9.734;2023-04-29T08:47:32;101263.28;;;11.97;76.96
75192;BME280;63771;52.580;9.734;2023-04-29T08:50:03;101260.22;;;12.01;76.06
75192;BME280;63771;52.580;9.734;2023-04-29T08:52:30;101268.78;;;12.02;76.44
75192;BME280;63771;52.580;9.734;2023-04-29T08:54:59;101264.81;;;12.06;75.87
75192;BME280;63771;52.580;9.734;2023-04-29T08:57:27;101273.91;;;12.12;76.73
75192;BME280;63771;52.580;9.734;2023-04-29T08:59:53;101282.09;;;12.08;74.03
75192;BME280;63771;52.580;9.734;2023-04-29T09:02:19;101276.84;;;12.07;74.03
75192;BME280;63771;52.580;9.734;2023-04-29T09:05:08;101285.53;;;12.09;74.86
75192;BME280;63771;52.580;9.734;2023-04-29T09:07:36;101281.19;;;12.08;73.43
75192;BME280;63771;52.580;9.734;2023-04-29T09:10:03;101281.72;;;12.14;73.04
75192;BME280;63771;52.580;9.734;2023-04-29T09:12:29;101280.94;;;12.15;74.39
75192;BME280;63771;52.580;9.734;2023-04-29T09:14:55;101287.09;;;12.17;73.58
75192;BME280;63771;52.580;9.734;2023-04-29T09:22:50;101289.88;;;12.10;77.43
75192;BME280;63771;52.580;9.734;2023-04-29T09:25:16;101299.09;;;12.08;77.51
75192;BME280;63771;52.580;9.734;2023-04-29T09:27:41;101299.88;;;12.07;77.91
75192;BME280;63771;52.580;9.734;2023-04-29T09:30:07;101304.72;;;12.04;76.10
75192;BME280;63771;52.580;9.734;2023-04-29T09:32:34;101303.94;;;12.05;74.89
75192;BME280;63771;52.580;9.734;2023-04-29T09:35:22;101303.19;;;12.16;75.27
75192;BME280;63771;52.580;9.734;2023-04-29T09:37:49;101310.75;;;12.24;76.09
75192;BME280;63771;52.580;9.734;2023-04-29T09:40:30;101305.66;;;12.35;75.01
75192;BME280;63771;52.580;9.734;2023-04-29T09:42:56;101308.59;;;12.39;74.38
75192;BME280;63771;52.580;9.734;2023-04-29T09:45:39;101306.94;;;12.40;71.94
75192;BME280;63771;52.580;9.734;2023-04-29T09:48:06;101310.50;;;12.42;72.03
75192;BME280;63771;52.580;9.734;2023-04-29T09:50:33;101307.06;;;12.51;73.96
75192;BME280;63771;52.580;9.734;2023-04-29T09:52:59;101313.72;;;12.60;72.47
75192;BME280;63771;52.580;9.734;2023-04-29T09:55:25;101334.81;;;12.67;70.61
75192;BME280;63771;52.580;9.734;2023-04-29T09:57:56;101318.97;;;12.71;69.06
75192;BME280;63771;52.580;9.734;2023-04-29T10:00:22;101331.63;;;12.80;69.83
75192;BME280;63771;52.580;9.734;2023-04-29T10:02:48;101316.75;;;12.86;70.48
75192;BME280;63771;52.580;9.734;2023-04-29T10:05:16;101329.94;;;12.91;69.55
75192;BME280;63771;52.580;9.734;2023-04-29T10:07:45;101325.94;;;12.94;69.22
75192;BME280;63771;52.580;9.734;2023-04-29T10:10:11;101325.19;;;13.05;69.91
75192;BME280;63771;52.580;9.734;2023-04-29T10:12:39;101317.22;;;13.13;70.79
75192;BME280;63771;52.580;9.734;2023-04-29T10:17:57;101340.19;;;13.21;65.44
75192;BME280;63771;52.580;9.734;2023-04-29T10:20:25;101322.94;;;13.20;65.42
75192;BME280;63771;52.580;9.734;2023-04-29T10:22:53;101330.31;;;13.26;67.02
75192;BME280;63771;52.580;9.734;2023-04-29T10:25:20;101326.31;;;13.29;66.61
75192;BME280;63771;52.580;9.734;2023-04-29T10:27:46;101335.91;;;13.32;65.76
75192;BME280;63771;52.580;9.734;2023-04-29T10:30:14;101333.09;;;13.29;66.26
75192;BME280;63771;52.580;9.734;2023-04-29T10:32:41;101338.59;;;13.34;66.59
75192;BME280;63771;52.580;9.734;2023-04-29T10:35:08;101337.03;;;13.36;65.56
75192;BME280;63771;52.580;9.734;2023-04-29T10:37:35;101328.22;;;13.32;62.81
75192;BME280;63771;52.580;9.734;2023-04-29T10:40:20;101334.09;;;13.31;63.71
75192;BME280;63771;52.580;9.734;2023-04-29T10:42:51;101341.28;;;13.35;64.71
75192;BME280;63771;52.580;9.734;2023-04-29T10:45:20;101332.06;;;13.37;64.09
75192;BME280;63771;52.580;9.734;2023-04-29T10:53:06;101336.31;;;13.26;63.61
75192;BME280;63771;52.580;9.734;2023-04-29T10:55:35;101337.72;;;13.23;62.59
75192;BME280;63771;52.580;9.734;2023-04-29T10:58:02;101333.63;;;13.25;65.04
75192;BME280;63771;52.580;9.734;2023-04-29T11:00:29;101335.75;;;13.41;63.78
75192;BME280;63771;52.580;9.734;2023-04-29T11:03:00;101341.88;;;13.53;62.82
75192;BME280;63771;52.580;9.734;2023-04-29T11:05:33;101343.41;;;13.51;61.60
75192;BME280;63771;52.580;9.734;2023-04-29T11:08:13;101347.41;;;13.47;61.48
75192;BME280;63771;52.580;9.734;2023-04-29T11:10:47;101333.28;;;13.52;62.27
75192;BME280;63771;52.580;9.734;2023-04-29T11:13:29;101338.75;;;13.57;61.32
75192;BME280;63771;52.580;9.734;2023-04-29T11:16:08;101348.63;;;13.63;62.51
75192;BME280;63771;52.580;9.734;2023-04-29T11:18:35;101346.81;;;13.62;62.01
75192;BME280;63771;52.580;9.734;2023-04-29T11:23:38;101348.38;;;13.60;61.15
75192;BME280;63771;52.580;9.734;2023-04-29T11:26:05;101335.66;;;13.61;61.71
75192;BME280;63771;52.580;9.734;2023-04-29T11:28:31;101350.41;;;13.64;61.87
75192;BME280;63771;52.580;9.734;2023-04-29T11:30:57;101345.28;;;13.64;61.11
75192;BME280;63771;52.580;9.734;2023-04-29T11:33:23;101348.84;;;13.66;61.25
75192;BME280;63771;52.580;9.734;2023-04-29T11:35:49;101349.75;;;13.66;60.79
75192;BME280;63771;52.580;9.734;2023-04-29T11:38:15;101356.44;;;13.64;61.58
75192;BME280;63771;52.580;9.734;2023-04-29T11:40:41;101348.06;;;13.67;61.89
75192;BME280;63771;52.580;9.734;2023-04-29T11:43:06;101351.63;;;13.79;63.03
75192;BME280;63771;52.580;9.734;2023-04-29T11:45:34;101352.34;;;13.88;62.12
75192;BME280;63771;52.580;9.734;2023-04-29T11:47:59;101358.63;;;13.92;61.28
75192;BME280;63771;52.580;9.734;2023-04-29T11:50:25;101354.78;;;13.87;60.73
75192;BME280;63771;52.580;9.734;2023-04-29T11:52:51;101369.97;;;13.83;60.37
75192;BME280;63771;52.580;9.734;2023-04-29T11:55:18;101363.09;;;13.94;60.66
75192;BME280;63771;52.580;9.734;2023-04-29T11:57:43;101361.13;;;14.02;59.09
75192;BME280;63771;52.580;9.734;2023-04-29T12:00:12;101357.50;;;14.10;56.87
75192;BME280;63771;52.580;9.734;2023-04-29T12:02:38;101369.19;;;14.06;57.61
75192;BME280;63771;52.580;9.734;2023-04-29T12:05:05;101365.47;;;14.03;58.18
75192;BME280;63771;52.580;9.734;2023-04-29T12:07:31;101369.19;;;14.06;59.66
75192;BME280;63771;52.580;9.734;2023-04-29T12:09:56;101379.34;;;14.05;58.91
75192;BME280;63771;52.580;9.734;2023-04-29T12:12:22;101376.94;;;13.96;59.69
75192;BME280;63771;52.580;9.734;2023-04-29T12:14:48;101376.69;;;13.93;59.81
75192;BME280;63771;52.580;9.734;2023-04-29T12:17:13;101385.16;;;13.92;59.94
75192;BME280;63771;52.580;9.734;2023-04-29T12:19:39;101384.25;;;13.92;58.26
75192;BME280;63771;52.580;9.734;2023-04-29T12:22:05;101375.56;;;13.90;58.08
75192;BME280;63771;52.580;9.734;2023-04-29T12:24:38;101366.19;;;13.90;59.06
75192;BME280;63771;52.580;9.734;2023-04-29T12:27:07;101373.13;;;13.91;59.04
75192;BME280;63771;52.580;9.734;2023-04-29T12:29:35;101381.69;;;13.92;57.53
75192;BME280;63771;52.580;9.734;2023-04-29T12:32:00;101387.13;;;13.84;55.80
75192;BME280;63771;52.580;9.734;2023-04-29T12:34:27;101391.00;;;13.79;57.72
75192;BME280;63771;52.580;9.734;2023-04-29T12:36:54;101388.56;;;13.81;58.60
75192;BME280;63771;52.580;9.734;2023-04-29T12:39:20;101380.84;;;13.81;58.54
75192;BME280;63771;52.580;9.734;2023-04-29T12:41:45;101380.34;;;13.85;60.04
75192;BME280;63771;52.580;9.734;2023-04-29T12:44:11;101389.28;;;13.90;59.90
75192;BME280;63771;52.580;9.734;2023-04-29T12:46:37;101395.53;;;13.94;59.82
75192;BME280;63771;52.580;9.734;2023-04-29T12:49:04;101394.00;;;13.96;59.22
75192;BME280;63771;52.580;9.734;2023-04-29T12:51:31;101401.94;;;13.99;58.48
75192;BME280;63771;52.580;9.734;2023-04-29T12:54:01;101390.66;;;13.97;59.00
75192;BME280;63771;52.580;9.734;2023-04-29T12:56:28;101392.59;;;13.99;58.12
75192;BME280;63771;52.580;9.734;2023-04-29T12:58:53;101391.03;;;14.01;58.19
75192;BME280;63771;52.580;9.734;2023-04-29T13:01:19;101385.91;;;14.01;57.53
75192;BME280;63771;52.580;9.734;2023-04-29T13:03:44;101378.19;;;14.01;58.88
75192;BME280;63771;52.580;9.734;2023-04-29T13:06:10;101385.00;;;14.01;57.70
75192;BME280;63771;52.580;9.734;2023-04-29T13:08:35;101392.34;;;13.96;57.67
75192;BME280;63771;52.580;9.734;2023-04-29T13:11:01;101397.88;;;13.91;57.44
75192;BME280;63771;52.580;9.734;2023-04-29T13:13:26;101395.19;;;13.89;58.29
75192;BME280;63771;52.580;9.734;2023-04-29T13:15:51;101391.59;;;13.87;58.22